Terminal Aerodrome Forecast
Issued by NWS

Home | Current Version | Previous Version | Text Only | Print | Product List | Glossary On
Versions: 1 2 3 4 5 6 7 8 9 10 11 12 13
000
FTUS43 KMQT 301400 AAA
TAFIWD
TAF AMD
KIWD 301417Z 3014/0112 09006KT P6SM OVC006
      TEMPO 3014/3016 BKN005
     FM301700 09007KT P6SM OVC010
     FM301800 10007KT P6SM OVC020
     FM301900 11008KT P6SM SCT025
     FM010200 16007KT P6SM BKN250
      AMD NOT SKED=

USA.gov is the U.S. government's official web portal to all federal, state and local government web resources and services.